createdAt,value
2022-12-27T00:01:44.490Z,3.30
2022-12-27T00:04:12.987Z,3.50
2022-12-27T00:06:41.334Z,3.80
2022-12-27T00:09:11.341Z,3.50
2022-12-27T00:11:40.384Z,3.70
2022-12-27T00:14:09.112Z,4.20
2022-12-27T00:16:37.929Z,4.20
2022-12-27T00:19:06.863Z,3.70
2022-12-27T00:21:37.684Z,3.30
2022-12-27T00:24:06.808Z,3.30
2022-12-27T00:26:36.728Z,3.10
2022-12-27T00:29:05.894Z,3.47
2022-12-27T00:31:35.144Z,2.90
2022-12-27T00:34:06.069Z,3.27
2022-12-27T00:36:34.573Z,3.40
2022-12-27T00:39:03.021Z,3.17
2022-12-27T00:41:31.799Z,3.03
2022-12-27T00:44:01.457Z,3.40
2022-12-27T00:46:29.819Z,3.00
2022-12-27T00:48:58.782Z,2.90
2022-12-27T00:51:27.231Z,3.10
2022-12-27T00:53:55.887Z,3.43
2022-12-27T00:56:26.521Z,3.20
2022-12-27T00:58:55.458Z,2.73
2022-12-27T01:01:26.987Z,2.80
2022-12-27T01:03:55.664Z,2.73
2022-12-27T01:06:28.934Z,2.70
2022-12-27T01:08:57.898Z,2.90
2022-12-27T01:11:28.495Z,3.53
2022-12-27T01:13:57.922Z,3.00
2022-12-27T01:16:29.322Z,2.47
2022-12-27T01:18:57.993Z,2.90
2022-12-27T01:21:27.312Z,3.13
2022-12-27T01:23:56.137Z,3.10
2022-12-27T01:26:24.691Z,3.13
2022-12-27T01:28:54.173Z,2.60
2022-12-27T01:31:24.754Z,2.70
2022-12-27T01:33:57.882Z,2.97
2022-12-27T01:36:27.769Z,2.30
2022-12-27T01:38:56.798Z,2.60
2022-12-27T01:41:45.231Z,2.37
2022-12-27T01:44:52.268Z,2.57
2022-12-27T01:47:27.389Z,2.83
2022-12-27T01:50:06.366Z,2.27
2022-12-27T01:52:38.661Z,3.07
2022-12-27T01:55:13.713Z,2.47
2022-12-27T01:57:43.024Z,1.83
2022-12-27T02:00:12.732Z,2.77
2022-12-27T02:02:41.949Z,2.30
2022-12-27T02:05:15.824Z,2.57
2022-12-27T02:07:55.073Z,3.23
2022-12-27T02:10:23.395Z,2.60
2022-12-27T02:12:51.911Z,2.67
2022-12-27T02:15:20.256Z,2.50
2022-12-27T02:17:48.511Z,2.07
2022-12-27T02:20:21.538Z,2.20
2022-12-27T02:23:55.171Z,1.90
2022-12-27T02:26:42.961Z,2.47
2022-12-27T02:29:46.407Z,1.90
2022-12-27T02:32:20.909Z,2.13
2022-12-27T02:34:58.191Z,2.63
2022-12-27T02:37:30.572Z,3.00
2022-12-27T02:40:21.619Z,2.43
2022-12-27T02:43:08.794Z,2.17
2022-12-27T02:46:01.072Z,3.13
2022-12-27T02:48:46.759Z,1.83
2022-12-27T02:51:49.763Z,2.27
2022-12-27T02:54:35.751Z,2.00
2022-12-27T02:57:11.065Z,1.90
2022-12-27T03:00:21.475Z,1.90
2022-12-27T03:03:24.417Z,2.23
2022-12-27T03:06:38.001Z,1.97
2022-12-27T03:09:39.236Z,1.50
2022-12-27T03:12:28.075Z,2.03
2022-12-27T03:15:18.549Z,2.13
2022-12-27T03:17:56.787Z,2.20
2022-12-27T03:20:43.090Z,1.97
2022-12-27T03:23:30.018Z,2.93
2022-12-27T03:25:59.964Z,2.50
2022-12-27T03:28:48.038Z,1.97
2022-12-27T03:31:38.118Z,1.90
2022-12-27T03:34:26.356Z,2.07
2022-12-27T03:37:13.271Z,2.80
2022-12-27T03:39:47.276Z,2.83
2022-12-27T03:42:38.916Z,1.93
2022-12-27T03:45:08.265Z,2.00
2022-12-27T03:47:42.504Z,2.00
2022-12-27T03:50:17.567Z,2.17
2022-12-27T03:52:49.834Z,2.20
2022-12-27T03:55:18.665Z,1.90
2022-12-27T03:57:46.994Z,1.97
2022-12-27T04:00:15.934Z,2.40
2022-12-27T04:02:44.841Z,2.20
2022-12-27T04:05:14.900Z,2.33
2022-12-27T04:08:00.603Z,2.13
2022-12-27T04:10:46.531Z,2.10
2022-12-27T04:13:32.004Z,1.90
2022-12-27T04:16:17.594Z,2.03
2022-12-27T04:19:03.167Z,1.80
2022-12-27T04:21:50.487Z,2.07
2022-12-27T04:24:35.941Z,2.00
2022-12-27T04:27:21.340Z,1.90
2022-12-27T04:30:07.324Z,2.47
2022-12-27T04:32:52.916Z,2.53
2022-12-27T04:35:21.301Z,2.43
2022-12-27T04:37:50.936Z,1.90
2022-12-27T04:40:36.600Z,1.83
2022-12-27T04:43:22.280Z,1.80
2022-12-27T04:46:08.258Z,2.10
2022-12-27T04:48:54.131Z,2.67
2022-12-27T04:51:39.531Z,2.00
2022-12-27T04:54:36.165Z,2.03
2022-12-27T04:57:04.946Z,2.20
2022-12-27T04:59:51.013Z,1.90
2022-12-27T05:02:20.436Z,2.00
2022-12-27T05:04:49.685Z,1.93
2022-12-27T05:07:35.396Z,1.97
2022-12-27T05:10:38.664Z,2.20
2022-12-27T05:13:23.797Z,1.93
2022-12-27T05:15:52.127Z,2.27
2022-12-27T05:18:20.380Z,2.60
2022-12-27T05:20:48.719Z,2.57
2022-12-27T05:23:34.675Z,2.03
2022-12-27T05:26:04.688Z,2.13
2022-12-27T05:28:32.969Z,2.20
2022-12-27T05:31:05.808Z,2.27
2022-12-27T05:33:34.168Z,1.87
2022-12-27T05:36:02.600Z,2.40
2022-12-27T05:38:30.866Z,2.10
2022-12-27T05:41:00.322Z,1.80
2022-12-27T05:43:30.850Z,2.33
2022-12-27T05:46:04.570Z,2.50
2022-12-27T05:48:32.902Z,2.10
2022-12-27T05:51:06.001Z,2.00
2022-12-27T05:53:34.428Z,1.90
2022-12-27T05:56:03.132Z,2.20
2022-12-27T05:58:32.891Z,2.07
2022-12-27T06:01:01.570Z,2.00
2022-12-27T06:03:29.950Z,2.60
2022-12-27T06:06:02.705Z,2.00
2022-12-27T06:08:31.305Z,2.43
2022-12-27T06:11:04.812Z,2.30
2022-12-27T06:13:36.378Z,2.87
2022-12-27T06:16:06.169Z,2.73
2022-12-27T06:18:36.644Z,3.70
2022-12-27T06:21:07.270Z,2.07
2022-12-27T06:23:39.419Z,2.90
2022-12-27T06:26:08.594Z,2.70
2022-12-27T06:28:38.291Z,2.30
2022-12-27T06:31:06.927Z,2.63
2022-12-27T06:33:35.374Z,2.77
2022-12-27T06:36:07.937Z,2.50
2022-12-27T06:38:36.509Z,3.00
2022-12-27T06:41:06.485Z,2.60
2022-12-27T06:43:35.582Z,2.90
2022-12-27T06:46:07.018Z,2.97
2022-12-27T06:48:35.335Z,2.80
2022-12-27T06:51:05.636Z,3.00
2022-12-27T06:53:34.226Z,2.97
2022-12-27T06:56:05.600Z,3.30
2022-12-27T06:58:33.811Z,3.20
2022-12-27T07:01:09.699Z,3.50
2022-12-27T07:03:39.169Z,3.20
2022-12-27T07:06:09.807Z,4.03
2022-12-27T07:08:38.506Z,4.20
2022-12-27T07:11:09.632Z,3.70
2022-12-27T07:13:40.157Z,3.37
2022-12-27T07:16:12.969Z,3.60
2022-12-27T07:18:42.064Z,4.33
2022-12-27T07:21:13.202Z,4.57
2022-12-27T07:23:41.803Z,4.53
2022-12-27T07:26:14.700Z,4.57
2022-12-27T07:28:43.309Z,4.50
2022-12-27T07:31:15.339Z,3.83
2022-12-27T07:33:44.086Z,4.33
2022-12-27T07:36:15.381Z,4.73
2022-12-27T07:38:45.362Z,4.60
2022-12-27T07:41:14.591Z,4.33
2022-12-27T07:43:43.741Z,4.77
2022-12-27T07:46:15.311Z,5.40
2022-12-27T07:48:44.398Z,5.13
2022-12-27T07:51:13.588Z,4.77
2022-12-27T07:53:42.366Z,4.70
2022-12-27T07:56:12.108Z,4.67
2022-12-27T07:58:41.288Z,5.13
2022-12-27T08:01:11.059Z,4.73
2022-12-27T08:03:41.352Z,4.60
2022-12-27T08:06:18.951Z,4.50
2022-12-27T08:08:47.620Z,4.87
2022-12-27T08:11:16.032Z,4.87
2022-12-27T08:13:44.272Z,4.70
2022-12-27T08:16:17.437Z,4.73
2022-12-27T08:18:47.337Z,4.60
2022-12-27T08:21:17.252Z,5.17
2022-12-27T08:23:45.911Z,3.87
2022-12-27T08:26:14.456Z,4.93
2022-12-27T08:28:46.358Z,4.30
2022-12-27T08:31:15.581Z,5.00
2022-12-27T08:33:44.053Z,5.20
2022-12-27T08:39:09.389Z,4.67
2022-12-27T08:41:38.022Z,5.30
2022-12-27T08:44:10.773Z,5.17
2022-12-27T08:46:39.808Z,4.97
2022-12-27T08:49:09.570Z,5.10
2022-12-27T08:51:41.489Z,5.60
2022-12-27T08:54:12.139Z,4.93
2022-12-27T08:56:41.528Z,5.17
2022-12-27T08:59:12.456Z,4.77
2022-12-27T09:01:41.038Z,4.43
2022-12-27T09:04:14.108Z,4.57
2022-12-27T09:06:43.814Z,4.07
2022-12-27T09:09:12.144Z,5.17
2022-12-27T09:11:40.380Z,4.47
2022-12-27T09:14:08.647Z,4.60
2022-12-27T09:16:37.108Z,5.00
2022-12-27T09:19:05.880Z,4.53
2022-12-27T09:21:35.312Z,4.60
2022-12-27T09:24:05.581Z,4.37
2022-12-27T09:26:34.205Z,4.17
2022-12-27T09:29:02.559Z,4.67
2022-12-27T09:31:31.109Z,4.33
2022-12-27T09:34:00.109Z,3.93
2022-12-27T09:36:30.248Z,4.03
2022-12-27T09:39:00.016Z,3.87
2022-12-27T09:44:35.647Z,4.10
2022-12-27T09:47:09.746Z,3.90
2022-12-27T09:49:41.171Z,3.83
2022-12-27T09:52:15.359Z,3.83
2022-12-27T09:55:02.506Z,3.83
2022-12-27T09:57:38.261Z,4.17
2022-12-27T10:00:15.756Z,3.93
2022-12-27T10:02:45.455Z,3.43
2022-12-27T10:05:21.921Z,3.40
2022-12-27T10:08:11.382Z,3.67
2022-12-27T10:10:45.799Z,3.37
2022-12-27T10:13:40.050Z,3.23
2022-12-27T10:16:19.173Z,4.37
2022-12-27T10:19:00.351Z,4.30
2022-12-27T10:21:31.192Z,3.53
2022-12-27T10:24:05.996Z,3.20
2022-12-27T10:26:34.341Z,3.63
2022-12-27T10:29:14.648Z,3.13
2022-12-27T10:31:44.528Z,2.93
2022-12-27T10:34:17.249Z,3.47
2022-12-27T10:36:46.544Z,2.57
2022-12-27T10:39:19.995Z,2.97
2022-12-27T10:41:58.365Z,2.77
2022-12-27T10:44:28.084Z,2.90
2022-12-27T10:46:57.442Z,2.87
2022-12-27T10:49:27.795Z,2.70
2022-12-27T10:51:59.642Z,2.83
2022-12-27T10:54:29.839Z,3.00
2022-12-27T10:57:16.561Z,2.40
2022-12-27T10:59:46.258Z,2.47
2022-12-27T11:02:19.434Z,2.80
2022-12-27T11:04:58.988Z,2.90
2022-12-27T11:07:32.273Z,2.43
2022-12-27T11:10:16.922Z,2.33
2022-12-27T11:12:59.340Z,2.77
2022-12-27T11:15:31.397Z,2.60
2022-12-27T11:18:03.341Z,2.00
2022-12-27T11:20:34.259Z,2.73
2022-12-27T11:23:05.593Z,2.80
2022-12-27T11:25:35.583Z,2.50
2022-12-27T11:28:06.680Z,3.50
2022-12-27T11:30:39.417Z,2.90
2022-12-27T11:33:24.680Z,2.83
2022-12-27T11:35:55.178Z,3.60
2022-12-27T11:38:26.185Z,3.00
2022-12-27T11:41:03.200Z,4.03
2022-12-27T11:43:35.141Z,2.60
2022-12-27T11:46:14.432Z,2.97
2022-12-27T11:48:46.705Z,3.00
2022-12-27T11:51:41.867Z,2.80
2022-12-27T11:54:29.923Z,2.90
2022-12-27T11:57:13.311Z,3.10
2022-12-27T11:59:55.164Z,3.27
2022-12-27T12:03:05.734Z,3.10
2022-12-27T12:05:56.988Z,3.33
2022-12-27T12:08:49.841Z,3.20
2022-12-27T12:11:32.121Z,2.77
2022-12-27T12:14:34.614Z,3.33
2022-12-27T12:17:17.143Z,3.17
2022-12-27T12:20:08.481Z,3.70
2022-12-27T12:22:51.908Z,3.13
2022-12-27T12:26:02.960Z,3.17
2022-12-27T12:29:18.752Z,3.27
2022-12-27T12:32:06.000Z,3.33
2022-12-27T12:34:49.113Z,3.00
2022-12-27T12:37:31.709Z,2.80
2022-12-27T12:40:27.252Z,3.20
2022-12-27T12:43:07.677Z,3.73
2022-12-27T12:45:51.316Z,3.90
2022-12-27T12:48:41.502Z,2.83
2022-12-27T12:51:31.845Z,3.47
2022-12-27T12:54:13.287Z,3.20
2022-12-27T12:56:58.101Z,3.47
2022-12-27T12:59:45.788Z,3.33
2022-12-27T13:02:39.448Z,3.23
2022-12-27T13:05:16.567Z,2.90
2022-12-27T13:08:06.243Z,2.90
2022-12-27T13:11:00.974Z,3.10
2022-12-27T13:13:41.255Z,2.50
2022-12-27T13:16:21.595Z,3.43
2022-12-27T13:18:59.542Z,2.90
2022-12-27T13:21:43.642Z,2.77
2022-12-27T13:24:26.204Z,2.87
2022-12-27T13:27:06.665Z,2.70
2022-12-27T13:29:47.369Z,3.00
2022-12-27T13:32:26.653Z,3.10
2022-12-27T13:35:07.739Z,3.30
2022-12-27T13:37:54.329Z,3.07
2022-12-27T13:40:57.331Z,2.87
2022-12-27T13:43:57.643Z,2.70
2022-12-27T13:46:47.681Z,2.83
2022-12-27T13:49:53.419Z,2.73
2022-12-27T13:53:00.529Z,2.97
2022-12-27T13:55:44.156Z,2.60
2022-12-27T13:58:46.058Z,2.63
2022-12-27T14:01:42.994Z,3.00
2022-12-27T14:04:29.326Z,2.90
2022-12-27T14:07:21.645Z,2.97
2022-12-27T14:10:08.171Z,3.27
2022-12-27T14:12:57.062Z,2.87
2022-12-27T14:15:32.703Z,2.47
2022-12-27T14:18:21.077Z,3.10
2022-12-27T14:21:05.428Z,2.63
2022-12-27T14:24:00.388Z,2.60
2022-12-27T14:27:01.346Z,2.73
2022-12-27T14:29:58.690Z,2.20
2022-12-27T14:32:50.343Z,1.80
2022-12-27T14:35:53.108Z,2.17
2022-12-27T14:38:51.858Z,2.40
2022-12-27T14:41:46.728Z,2.53
2022-12-27T14:44:55.524Z,2.20
2022-12-27T14:47:48.877Z,2.10
2022-12-27T14:50:52.446Z,2.20
2022-12-27T14:54:20.711Z,2.13
2022-12-27T14:57:01.491Z,2.47
2022-12-27T14:59:41.090Z,2.63
2022-12-27T15:02:29.267Z,2.00
2022-12-27T15:05:15.096Z,2.27
2022-12-27T15:08:01.031Z,2.40
2022-12-27T15:10:52.966Z,2.47
2022-12-27T15:13:31.113Z,2.50
2022-12-27T15:16:15.028Z,2.77
2022-12-27T15:18:59.847Z,2.93
2022-12-27T15:21:51.388Z,3.13
2022-12-27T15:24:41.477Z,3.17
2022-12-27T15:27:20.512Z,4.63
2022-12-27T15:30:05.470Z,5.80
2022-12-27T15:32:46.991Z,6.90
2022-12-27T15:35:41.076Z,5.33
2022-12-27T15:38:13.531Z,3.93
2022-12-27T15:41:06.238Z,2.70
2022-12-27T15:44:02.216Z,3.10
2022-12-27T15:46:51.490Z,3.03
2022-12-27T15:49:38.986Z,3.00
2022-12-27T15:52:14.277Z,4.33
2022-12-27T15:55:12.226Z,4.97
2022-12-27T15:57:56.773Z,3.87
2022-12-27T16:00:33.866Z,2.73
2022-12-27T16:03:04.576Z,2.37
2022-12-27T16:05:47.419Z,2.60
2022-12-27T16:08:34.172Z,2.70
2022-12-27T16:11:05.395Z,3.30
2022-12-27T16:13:43.291Z,3.13
2022-12-27T16:16:57.907Z,3.13
2022-12-27T16:19:48.752Z,2.43
2022-12-27T16:22:25.463Z,3.03
2022-12-27T16:24:53.885Z,2.60
2022-12-27T16:27:31.149Z,2.60
2022-12-27T16:30:00.005Z,2.30
2022-12-27T16:32:30.161Z,2.93
2022-12-27T16:35:14.003Z,2.97
2022-12-27T16:37:45.662Z,2.33
2022-12-27T16:40:25.135Z,3.03
2022-12-27T16:43:28.701Z,3.10
2022-12-27T16:46:09.738Z,3.20
2022-12-27T16:48:54.413Z,2.97
2022-12-27T16:51:31.415Z,2.80
2022-12-27T16:54:07.048Z,3.03
2022-12-27T16:56:44.854Z,3.10
2022-12-27T16:59:55.174Z,2.70
2022-12-27T17:02:32.910Z,3.87
2022-12-27T17:05:02.738Z,3.33
2022-12-27T17:08:07.719Z,3.40
2022-12-27T17:10:45.968Z,4.00
2022-12-27T17:13:18.721Z,3.50
2022-12-27T17:15:54.638Z,3.13
2022-12-27T17:18:29.571Z,3.73
2022-12-27T17:21:06.974Z,3.23
2022-12-27T17:23:41.575Z,2.73
2022-12-27T17:26:23.873Z,3.60
2022-12-27T17:29:00.447Z,3.23
2022-12-27T17:31:37.749Z,3.30
2022-12-27T17:34:15.574Z,3.20
2022-12-27T17:36:55.219Z,3.50
2022-12-27T17:39:37.952Z,2.63
2022-12-27T17:42:31.490Z,2.53
2022-12-27T17:45:12.762Z,4.10
2022-12-27T17:47:58.924Z,2.67
2022-12-27T17:50:28.319Z,3.07
2022-12-27T17:53:33.339Z,2.93
2022-12-27T17:56:30.229Z,3.10
2022-12-27T17:59:03.935Z,4.57
2022-12-27T18:01:35.399Z,2.80
2022-12-27T18:04:06.796Z,3.03
2022-12-27T18:06:37.340Z,3.00
2022-12-27T18:09:08.792Z,2.70
2022-12-27T18:11:37.103Z,3.17
2022-12-27T18:14:06.074Z,3.10
2022-12-27T18:16:39.565Z,4.70
2022-12-27T18:19:08.049Z,4.60
2022-12-27T18:21:36.337Z,3.47
2022-12-27T18:24:25.140Z,2.90
2022-12-27T18:27:01.756Z,3.50
2022-12-27T18:29:30.137Z,2.80
2022-12-27T18:32:02.481Z,3.73
2022-12-27T18:34:39.437Z,2.83
2022-12-27T18:37:10.883Z,3.00
2022-12-27T18:39:43.383Z,3.10
2022-12-27T18:42:18.539Z,2.90
2022-12-27T18:44:50.532Z,2.70
2022-12-27T18:47:22.335Z,2.87
2022-12-27T18:49:55.160Z,2.93
2022-12-27T18:52:26.955Z,3.40
2022-12-27T18:54:56.663Z,3.37
2022-12-27T18:57:35.333Z,3.40
2022-12-27T19:00:18.437Z,3.77
2022-12-27T19:02:46.971Z,3.37
2022-12-27T19:05:25.919Z,3.67
2022-12-27T19:07:58.108Z,3.07
2022-12-27T19:10:30.120Z,3.23
2022-12-27T19:12:58.853Z,2.70
2022-12-27T19:15:29.626Z,3.20
2022-12-27T19:18:01.790Z,2.70
2022-12-27T19:20:32.570Z,2.60
2022-12-27T19:23:03.506Z,2.57
2022-12-27T19:25:36.412Z,3.40
2022-12-27T19:28:20.935Z,3.03
2022-12-27T19:30:51.665Z,3.10
2022-12-27T19:33:26.655Z,3.13
2022-12-27T19:35:55.793Z,3.27
2022-12-27T19:38:26.571Z,3.07
2022-12-27T19:41:03.248Z,3.07
2022-12-27T19:43:37.189Z,2.60
2022-12-27T19:46:07.154Z,3.47
2022-12-27T19:48:35.559Z,3.13
2022-12-27T19:51:04.081Z,3.17
2022-12-27T19:53:34.676Z,2.90
2022-12-27T19:56:04.541Z,2.60
2022-12-27T19:58:33.395Z,2.70
2022-12-27T20:01:01.901Z,3.83
2022-12-27T20:03:30.230Z,3.30
2022-12-27T20:06:14.267Z,2.47
2022-12-27T20:08:50.856Z,2.67
2022-12-27T20:11:22.343Z,2.80
2022-12-27T20:13:51.271Z,3.00
2022-12-27T20:16:21.028Z,3.20
2022-12-27T20:18:49.568Z,2.60
2022-12-27T20:21:20.399Z,2.70
2022-12-27T20:23:49.138Z,2.90
2022-12-27T20:26:22.190Z,2.70
2022-12-27T20:28:51.223Z,2.67
2022-12-27T20:31:21.729Z,2.80
2022-12-27T20:33:52.777Z,2.40
2022-12-27T20:36:21.324Z,2.60
2022-12-27T20:38:49.714Z,2.53
2022-12-27T20:41:21.053Z,2.90
2022-12-27T20:43:49.487Z,2.47
2022-12-27T20:46:19.279Z,3.00
2022-12-27T20:48:48.364Z,2.50
2022-12-27T20:51:18.240Z,2.60
2022-12-27T20:53:48.384Z,2.50
2022-12-27T20:56:17.627Z,3.00
2022-12-27T20:58:47.252Z,2.67
2022-12-27T21:01:17.126Z,2.50
2022-12-27T21:03:46.271Z,3.20
2022-12-27T21:06:17.145Z,2.77
2022-12-27T21:08:50.644Z,3.37
2022-12-27T21:11:26.848Z,2.93
2022-12-27T21:13:56.936Z,3.30
2022-12-27T21:16:27.603Z,3.57
2022-12-27T21:18:56.968Z,2.17
2022-12-27T21:21:28.890Z,2.87
2022-12-27T21:23:57.599Z,2.77
2022-12-27T21:26:27.686Z,2.47
2022-12-27T21:28:58.686Z,2.93
2022-12-27T21:31:27.464Z,3.00
2022-12-27T21:33:55.726Z,2.50
2022-12-27T21:36:25.794Z,2.90
2022-12-27T21:38:55.359Z,3.00
2022-12-27T21:41:25.287Z,2.77
2022-12-27T21:43:53.916Z,3.13
2022-12-27T21:46:25.245Z,3.17
2022-12-27T21:48:56.368Z,2.67
2022-12-27T21:51:24.911Z,3.13
2022-12-27T21:53:53.560Z,4.13
2022-12-27T21:56:22.229Z,3.23
2022-12-27T21:58:50.594Z,3.13
2022-12-27T22:01:21.285Z,3.23
2022-12-27T22:03:52.867Z,3.73
2022-12-27T22:06:23.287Z,3.57
2022-12-27T22:08:53.522Z,3.40
2022-12-27T22:11:24.000Z,3.40
2022-12-27T22:13:52.325Z,3.60
2022-12-27T22:16:22.319Z,3.80
2022-12-27T22:18:52.432Z,3.13
2022-12-27T22:21:22.209Z,4.13
2022-12-27T22:23:53.016Z,3.77
2022-12-27T22:26:22.802Z,3.80
2022-12-27T22:28:51.226Z,3.90
2022-12-27T22:31:21.371Z,3.43
2022-12-27T22:33:52.078Z,3.87
2022-12-27T22:36:22.457Z,4.50
2022-12-27T22:38:53.595Z,3.73
2022-12-27T22:41:26.562Z,4.17
2022-12-27T22:43:57.153Z,4.03
2022-12-27T22:46:26.727Z,3.80
2022-12-27T22:48:58.163Z,4.13
2022-12-27T22:51:27.771Z,4.00
2022-12-27T22:53:56.662Z,3.70
2022-12-27T22:56:27.216Z,4.10
2022-12-27T22:58:56.060Z,4.20
2022-12-27T23:01:27.768Z,3.97
2022-12-27T23:03:58.720Z,4.67
2022-12-27T23:06:29.013Z,4.30
2022-12-27T23:08:57.463Z,3.63
2022-12-27T23:11:28.216Z,4.33
2022-12-27T23:13:59.243Z,4.67
2022-12-27T23:16:28.602Z,4.40
2022-12-27T23:18:58.248Z,4.67
2022-12-27T23:21:26.537Z,4.70
2022-12-27T23:23:54.792Z,4.57
2022-12-27T23:26:24.173Z,4.83
2022-12-27T23:28:53.684Z,4.87
2022-12-27T23:31:23.649Z,5.20
2022-12-27T23:33:52.736Z,4.90
2022-12-27T23:36:22.956Z,5.10
2022-12-27T23:38:51.660Z,5.57
2022-12-27T23:41:22.359Z,5.30
2022-12-27T23:43:53.348Z,5.67
2022-12-27T23:46:24.953Z,5.73
2022-12-27T23:48:53.700Z,5.40
2022-12-27T23:51:24.143Z,6.63
2022-12-27T23:53:52.701Z,5.40
2022-12-27T23:56:23.138Z,5.07
2022-12-27T23:58:53.064Z,5.40
